Time;durP1;ratioP1;P1;durP2;ratioP2;P2;SDS_P1;SDS_P2;PMS_P1;PMS_P2;Temp;Humidity;BMP_temperature;BMP_pressure;BME280_temperature;BME280_humidity;BME280_pressure;Samples;Min_cycle;Max_cycle;Signal;HPM_P1;HPM_P2
2022/02/06 00:02:23;;;;;;;1.17;0.83;;;5.30;99.90;4.90;100353.00;;;;4955390;28;88633;-68
2022/02/06 00:04:50;;;;;;;0.67;0.63;;;5.10;99.90;4.90;100362.00;;;;4957202;28;88810;-68
2022/02/06 00:07:16;;;;;;;1.33;0.97;;;5.10;99.90;4.80;100345.00;;;;4956115;28;87761;-68
2022/02/06 00:09:45;;;;;;;1.30;0.90;;;5.00;99.90;4.70;100355.00;;;;4956376;28;87089;-68
2022/02/06 00:12:10;;;;;;;1.40;1.10;;;5.00;99.90;4.70;100344.00;;;;4955756;28;89047;-68
2022/02/06 00:14:37;;;;;;;7.10;1.63;;;4.80;99.90;4.60;100337.00;;;;4955641;28;87617;-68
2022/02/06 00:17:03;;;;;;;1.43;0.97;;;4.80;99.90;4.60;100349.00;;;;4970162;28;88703;-70
2022/02/06 00:19:29;;;;;;;2.63;1.17;;;4.50;99.90;4.60;100347.00;;;;4963388;28;107439;-70
2022/02/06 00:21:54;;;;;;;1.50;0.90;;;4.80;99.90;4.60;100341.00;;;;4974146;28;111418;-67
2022/02/06 00:24:30;;;;;;;2.10;0.93;;;4.70;99.90;4.50;100335.00;;;;4974376;28;116541;-69
2022/02/06 00:27:06;;;;;;;2.97;1.37;;;4.70;99.90;4.50;100325.00;;;;4975275;28;87878;-68
2022/02/06 00:29:48;;;;;;;5.07;1.20;;;4.60;99.90;4.40;100333.00;;;;4964576;28;87365;-70
2022/02/06 00:32:28;;;;;;;3.83;1.30;;;4.60;99.90;4.30;100322.00;;;;4955669;28;87745;-68
2022/02/06 00:35:20;;;;;;;2.33;1.30;;;4.50;99.90;4.20;100320.00;;;;4966873;28;88581;-68
2022/02/06 00:38:09;;;;;;;3.30;1.20;;;4.50;99.90;4.20;100295.00;;;;4970282;28;87972;-69
2022/02/06 00:43:20;;;;;;;1.67;0.87;;;4.30;99.90;4.10;100300.00;;;;4954433;28;88745;-70
2022/02/06 00:45:46;;;;;;;0.90;0.83;;;4.30;99.90;4.00;100301.00;;;;4954861;28;108935;-69
2022/02/06 00:48:13;;;;;;;3.43;1.30;;;4.20;99.90;4.00;100290.00;;;;4953886;28;110460;-69
2022/02/06 00:50:44;;;;;;;3.33;1.10;;;4.20;99.90;4.00;100280.00;;;;4956033;28;87895;-69
2022/02/06 00:53:16;;;;;;;2.67;0.90;;;4.20;99.90;4.00;100290.00;;;;4954757;28;89057;-69
2022/02/06 00:55:45;;;;;;;3.10;1.23;;;4.20;99.90;4.00;100267.00;;;;4955945;28;87880;-69
2022/02/06 00:58:11;;;;;;;2.73;1.07;;;4.30;99.90;4.00;100283.00;;;;4972617;28;87750;-69
2022/02/06 01:00:37;;;;;;;2.00;1.13;;;4.30;99.90;4.00;100282.00;;;;4974774;28;92035;-68
2022/02/06 01:03:02;;;;;;;2.83;1.73;;;4.20;99.90;4.00;100276.00;;;;4966171;28;118679;-70
2022/02/06 01:05:28;;;;;;;1.87;1.03;;;4.20;99.90;4.00;100263.00;;;;4972036;28;117571;-71
2022/02/06 01:07:55;;;;;;;3.20;1.07;;;4.20;99.90;3.90;100251.00;;;;4973728;28;108219;-69
2022/02/06 01:10:23;;;;;;;4.53;1.27;;;4.20;99.90;3.90;100253.00;;;;4975051;28;87742;-68
2022/02/06 01:12:55;;;;;;;2.97;1.20;;;4.10;99.90;3.90;100257.00;;;;4974310;28;89017;-68
2022/02/06 01:15:46;;;;;;;3.13;1.03;;;4.10;99.90;3.90;100237.00;;;;4975187;28;89531;-67
2022/02/06 01:18:18;;;;;;;1.40;1.30;;;4.10;99.90;3.90;100235.00;;;;4977614;28;87962;-68
2022/02/06 01:20:53;;;;;;;3.67;1.40;;;4.10;99.90;3.90;100229.00;;;;4959361;28;87757;-68
2022/02/06 01:23:26;;;;;;;1.83;1.27;;;4.10;99.90;3.90;100227.00;;;;4955779;28;90621;-70
2022/02/06 01:26:02;;;;;;;0.83;0.83;;;4.00;99.90;3.90;100221.00;;;;4959137;28;87141;-71
2022/02/06 01:28:56;;;;;;;1.77;0.80;;;4.10;99.90;3.90;100213.00;;;;4972898;28;88041;-70
2022/02/06 01:34:01;;;;;;;0.60;0.60;;;4.10;99.90;3.80;100191.00;;;;4956554;28;88830;-69
2022/02/06 01:36:40;;;;;;;1.63;1.20;;;4.10;99.90;3.90;100211.00;;;;4972358;28;90488;-70
2022/02/06 01:41:36;;;;;;;1.60;1.00;;;4.10;99.90;3.80;100184.00;;;;4974509;28;97135;-68
2022/02/06 01:44:08;;;;;;;6.67;1.07;;;4.00;99.90;3.80;100176.00;;;;4976992;28;87635;-67
2022/02/06 01:57:19;;;;;;;2.20;1.00;;;4.00;99.90;3.80;100183.00;;;;4977778;28;87987;-68
2022/02/06 02:01:01;;;;;;;1.00;0.70;;;4.10;99.90;3.80;100159.00;;;;4955222;28;89198;-68
2022/02/06 02:11:36;;;;;;;1.43;1.17;;;4.00;99.90;3.80;100144.00;;;;4972890;28;87774;-68
2022/02/06 02:17:07;;;;;;;3.20;1.10;;;4.00;99.90;3.70;100129.00;;;;4956301;28;88120;-67
2022/02/06 02:33:30;;;;;;;4.30;1.10;;;4.00;99.90;3.60;100082.00;;;;4956003;28;87735;-67
2022/02/06 02:46:55;;;;;;;0.93;0.90;;;3.80;99.90;3.50;100054.00;;;;4955359;28;87265;-68
2022/02/06 02:49:23;;;;;;;3.63;1.73;;;3.80;99.90;3.50;100063.00;;;;4959103;28;88349;-69
2022/02/06 02:51:56;;;;;;;1.77;1.33;;;3.80;99.90;3.50;100044.00;;;;4976983;28;87636;-68
2022/02/06 02:54:25;;;;;;;6.13;1.37;;;3.70;99.90;3.60;100054.00;;;;4976459;28;88850;-70
2022/02/06 02:57:04;;;;;;;2.37;1.07;;;3.80;99.90;3.60;100047.00;;;;4967278;28;87774;-70
2022/02/06 03:00:06;;;;;;;1.50;1.37;;;3.80;99.90;3.50;100026.00;;;;4970845;28;89569;-70
2022/02/06 03:02:16;;;;;;;1.67;1.10;;;3.80;99.90;3.50;100016.00;;;;4955930;28;87598;-71
2022/02/06 03:04:46;;;;;;;4.50;1.07;;;3.70;99.90;3.60;100016.00;;;;4957167;28;87831;-70
2022/02/06 03:07:12;;;;;;;2.77;1.33;;;3.80;99.90;3.60;99989.00;;;;4956891;28;87730;-70
2022/02/06 03:09:42;;;;;;;2.70;0.97;;;3.70;99.90;3.50;99985.00;;;;4969270;28;116239;-67
2022/02/06 03:12:08;;;;;;;3.70;1.20;;;3.70;99.90;3.60;100001.00;;;;4956882;28;88761;-69
2022/02/06 03:14:46;;;;;;;1.30;1.20;;;3.80;99.90;3.60;99989.00;;;;4956594;28;87705;-69
2022/02/06 03:17:21;;;;;;;4.33;1.43;;;3.80;99.90;3.60;99954.00;;;;4956543;28;87867;-69
2022/02/06 03:19:54;;;;;;;1.30;1.20;;;3.80;99.90;3.60;99980.00;;;;4955991;28;89334;-71
2022/02/06 03:22:24;;;;;;;4.17;1.50;;;3.80;99.90;3.60;99949.00;;;;4956064;28;88994;-71
2022/02/06 03:24:55;;;;;;;2.53;1.50;;;3.80;99.90;3.60;99968.00;;;;4963877;28;88046;-70
2022/02/06 03:27:21;;;;;;;1.27;1.17;;;3.80;99.90;3.60;99957.00;;;;4975830;28;87727;-71
2022/02/06 03:29:47;;;;;;;1.97;1.33;;;3.80;99.90;3.60;99938.00;;;;4975644;28;88580;-72
2022/02/06 03:32:13;;;;;;;2.63;1.20;;;3.90;99.90;3.60;99953.00;;;;4975053;28;117629;-73
2022/02/06 03:34:38;;;;;;;2.70;1.20;;;3.80;99.90;3.60;99942.00;;;;4965287;28;103926;-74
2022/02/06 03:37:04;;;;;;;3.63;1.20;;;3.80;99.90;3.60;99944.00;;;;4955185;28;108933;-72
2022/02/06 03:39:34;;;;;;;2.07;1.33;;;4.30;99.90;3.70;99931.00;;;;4956787;28;96766;-71
2022/02/06 03:42:10;;;;;;;1.40;0.93;;;3.80;99.90;3.70;99928.00;;;;4956030;28;87784;-71
2022/02/06 03:44:51;;;;;;;1.43;0.90;;;3.80;99.90;3.70;99934.00;;;;4968195;28;88711;-72
2022/02/06 03:47:23;;;;;;;1.70;1.23;;;3.90;99.90;3.70;99918.00;;;;4956377;28;87588;-72
2022/02/06 03:49:57;;;;;;;2.50;0.80;;;4.30;99.90;3.70;99918.00;;;;4973863;28;88844;-71
2022/02/06 03:52:31;;;;;;;4.03;1.20;;;3.90;99.90;3.80;99873.00;;;;4972435;28;89865;-70
2022/02/06 03:54:57;;;;;;;1.77;1.10;;;4.00;99.90;3.80;99885.00;;;;4971623;28;87838;-70
2022/02/06 03:57:23;;;;;;;1.77;1.50;;;4.00;99.90;3.80;99894.00;;;;4975938;28;90092;-71
2022/02/06 03:59:49;;;;;;;4.17;1.60;;;3.90;99.90;3.80;99882.00;;;;4974903;28;108086;-70
2022/02/06 04:02:15;;;;;;;2.10;1.17;;;4.00;99.90;3.90;99874.00;;;;4975031;28;111657;-71
2022/02/06 04:04:41;;;;;;;6.57;1.33;;;4.10;99.90;3.90;99866.00;;;;4974471;28;91879;-70
2022/02/06 04:07:09;;;;;;;4.23;1.17;;;4.10;99.90;4.00;99869.00;;;;4974683;28;109020;-71
2022/02/06 04:09:43;;;;;;;1.67;1.20;;;4.10;99.90;3.90;99853.00;;;;4965369;28;89750;-69
2022/02/06 04:12:11;;;;;;;1.87;0.97;;;4.20;99.90;4.00;99858.00;;;;4955728;28;88040;-69
2022/02/06 04:14:55;;;;;;;2.17;1.33;;;4.20;99.90;4.00;99861.00;;;;4964619;28;88819;-68
2022/02/06 04:17:27;;;;;;;1.93;1.10;;;4.20;99.90;4.00;99856.00;;;;4976055;28;88188;-69
2022/02/06 04:19:53;;;;;;;4.73;1.20;;;4.30;99.90;4.10;99847.00;;;;4975356;28;87884;-69
2022/02/06 04:22:21;;;;;;;2.30;0.97;;;4.30;99.90;4.10;99839.00;;;;4962729;28;89060;-68
2022/02/06 04:24:47;;;;;;;0.93;0.87;;;4.30;99.90;4.20;99851.00;;;;4970310;28;87886;-68
2022/02/06 04:27:13;;;;;;;2.20;0.97;;;4.40;99.90;4.20;99844.00;;;;4956142;28;87032;-68
2022/02/06 04:29:38;;;;;;;1.10;0.87;;;4.40;99.90;4.20;99829.00;;;;4953133;28;90203;-67
2022/02/06 04:32:07;;;;;;;2.03;0.90;;;4.40;99.90;4.30;99826.00;;;;4953982;28;118413;-68
2022/02/06 04:34:33;;;;;;;2.20;0.90;;;4.40;99.90;4.30;99821.00;;;;4955177;28;88792;-67
2022/02/06 04:37:26;;;;;;;3.67;1.00;;;4.50;99.90;4.40;99828.00;;;;4955929;28;87772;-67
2022/02/06 04:40:06;;;;;;;1.60;0.90;;;4.50;99.90;4.40;99809.00;;;;4969887;28;90375;-68
2022/02/06 05:11:12;;;;;;;3.10;1.13;;;5.00;99.90;5.00;99788.00;;;;4971553;28;87946;-67
2022/02/06 05:13:09;;;;;;;2.57;0.83;;;5.40;99.90;5.30;99758.00;;;;4956617;28;88199;-68
2022/02/06 05:28:41;;;;;;;0.90;0.63;;;6.30;99.90;5.40;99761.00;;;;4976672;28;88582;-68
2022/02/06 05:31:11;;;;;;;2.33;0.97;;;5.60;99.90;5.40;99757.00;;;;4977820;28;87900;-68
2022/02/06 05:33:37;;;;;;;0.60;0.50;;;5.60;99.90;5.40;99750.00;;;;4957445;28;88595;-68
2022/02/06 05:36:07;;;;;;;1.63;0.70;;;5.60;99.90;5.40;99764.00;;;;4957925;28;87871;-69
2022/02/06 05:38:33;;;;;;;1.37;0.93;;;5.50;99.90;5.40;99760.00;;;;4968352;28;87686;-68
2022/02/06 05:40:59;;;;;;;3.80;0.93;;;5.60;99.90;5.50;99752.00;;;;4980189;28;109908;-68
2022/02/06 05:43:24;;;;;;;0.30;0.30;;;5.60;99.90;5.50;99753.00;;;;4976023;28;117571;-68
2022/02/06 05:45:50;;;;;;;0.87;0.50;;;5.60;99.90;5.50;99741.00;;;;4973561;28;117915;-68
2022/02/06 05:48:16;;;;;;;1.43;0.87;;;5.60;99.90;5.50;99717.00;;;;4956283;28;110897;-69
2022/02/06 05:50:43;;;;;;;1.17;0.50;;;5.70;99.90;5.60;99730.00;;;;4974339;28;87850;-70
2022/02/06 05:53:11;;;;;;;1.33;0.73;;;5.70;99.90;5.60;99725.00;;;;4971250;28;89766;-68
2022/02/06 05:55:37;;;;;;;0.60;0.50;;;5.70;99.90;5.60;99717.00;;;;4957204;28;102361;-69
2022/02/06 05:58:03;;;;;;;1.47;0.77;;;5.70;99.90;5.50;99718.00;;;;4957470;28;91734;-68
2022/02/06 06:00:29;;;;;;;2.93;1.17;;;5.70;99.90;5.50;99719.00;;;;4957674;28;87727;-69
2022/02/06 06:02:55;;;;;;;0.77;0.73;;;5.00;99.90;5.50;99705.00;;;;4957092;28;87547;-68
2022/02/06 06:05:21;;;;;;;0.47;0.47;;;5.60;99.90;5.40;99724.00;;;;4958284;28;88472;-69
2022/02/06 06:07:46;;;;;;;1.67;0.50;;;5.60;99.90;5.30;99704.00;;;;4959160;28;88084;-69
2022/02/06 06:10:12;;;;;;;1.50;0.63;;;5.50;99.90;5.30;99708.00;;;;4991193;28;107354;-70
2022/02/06 06:12:39;;;;;;;3.70;0.77;;;5.50;99.90;5.30;99698.00;;;;4977298;28;87851;-69
2022/02/06 06:15:06;;;;;;;0.70;0.50;;;5.60;99.90;5.30;99697.00;;;;4973783;28;89167;-70
2022/02/06 06:17:35;;;;;;;4.30;0.70;;;5.50;99.90;5.30;99686.00;;;;4976221;28;88821;-69
2022/02/06 06:20:03;;;;;;;1.13;0.57;;;5.50;99.90;5.30;99690.00;;;;4977490;28;88015;-69
2022/02/06 06:22:29;;;;;;;0.37;0.37;;;5.50;99.90;5.30;99690.00;;;;4976947;28;88032;-69
2022/02/06 06:24:57;;;;;;;0.83;0.40;;;5.50;99.90;5.30;99670.00;;;;4976665;28;87950;-70
2022/02/06 06:27:23;;;;;;;0.80;0.57;;;5.50;99.90;5.30;99680.00;;;;4973335;28;87694;-68
2022/02/06 06:29:49;;;;;;;1.33;0.30;;;5.50;99.90;5.30;99676.00;;;;4957181;28;87635;-68
2022/02/06 06:32:14;;;;;;;2.80;0.87;;;5.50;99.90;5.30;99671.00;;;;4957166;28;118306;-68
2022/02/06 06:34:40;;;;;;;3.67;0.50;;;5.50;99.90;5.40;99677.00;;;;4955952;28;117624;-68
2022/02/06 06:37:06;;;;;;;0.80;0.60;;;5.60;99.90;5.40;99690.00;;;;4956757;28;102380;-68
2022/02/06 06:39:37;;;;;;;1.90;0.50;;;5.50;99.90;5.40;99674.00;;;;4972073;28;87936;-68
2022/02/06 06:42:04;;;;;;;1.53;0.60;;;5.60;99.90;5.50;99638.00;;;;4977010;28;88458;-67
2022/02/06 06:44:30;;;;;;;0.50;0.50;;;5.60;99.90;5.50;99670.00;;;;4973012;28;87856;-68
2022/02/06 06:46:55;;;;;;;0.67;0.50;;;5.60;99.90;5.50;99664.00;;;;4957027;28;87590;-68
2022/02/06 06:49:21;;;;;;;1.03;0.53;;;5.60;99.90;5.60;99677.00;;;;4970708;28;107587;-68
2022/02/06 06:51:47;;;;;;;0.87;0.40;;;5.60;99.90;5.50;99660.00;;;;4955627;28;118363;-68
2022/02/06 06:54:18;;;;;;;0.20;0.20;;;5.70;99.90;5.60;99651.00;;;;4963426;28;88887;-68
2022/02/06 06:56:58;;;;;;;0.70;0.43;;;5.70;99.90;5.60;99656.00;;;;4976457;28;87717;-68
2022/02/06 07:04:52;;;;;;;0.47;0.47;;;5.70;99.90;5.70;99656.00;;;;4957199;28;89391;-67
2022/02/06 07:07:18;;;;;;;0.27;0.27;;;5.90;99.90;5.60;99647.00;;;;4956610;28;88654;-68
2022/02/06 07:09:45;;;;;;;0.53;0.30;;;5.70;99.90;5.60;99657.00;;;;4987234;28;87853;-69
2022/02/06 07:12:13;;;;;;;0.67;0.47;;;5.80;99.90;5.50;99640.00;;;;4958612;28;88914;-68
2022/02/06 07:14:44;;;;;;;0.57;0.47;;;5.70;99.90;5.50;99647.00;;;;4965501;28;89140;-68
2022/02/06 07:17:10;;;;;;;1.43;0.33;;;5.70;99.90;5.50;99654.00;;;;4988204;28;88028;-69
2022/02/06 07:19:37;;;;;;;1.43;0.50;;;5.70;99.90;5.50;99645.00;;;;4972422;28;87959;-69
2022/02/06 07:22:03;;;;;;;0.80;0.40;;;5.70;99.90;5.50;99641.00;;;;4973111;28;87520;-70
2022/02/06 07:24:29;;;;;;;1.10;0.37;;;5.70;99.90;5.50;99647.00;;;;4982436;28;94654;-68
2022/02/06 07:26:59;;;;;;;0.93;0.50;;;5.70;99.90;5.50;99647.00;;;;4973027;28;87649;-69
2022/02/06 07:29:25;;;;;;;1.20;0.40;;;5.70;99.90;5.50;99641.00;;;;4965961;28;87784;-69
2022/02/06 07:31:53;;;;;;;0.80;0.50;;;5.60;99.90;5.60;99630.00;;;;4972549;28;89205;-69
2022/02/06 07:34:18;;;;;;;0.40;0.40;;;5.70;99.90;5.60;99636.00;;;;4972114;28;89000;-70
2022/02/06 07:36:44;;;;;;;0.50;0.40;;;5.60;99.90;5.60;99620.00;;;;4967020;28;109752;-69
2022/02/06 07:39:10;;;;;;;0.50;0.50;;;5.70;99.90;5.60;99609.00;;;;4968593;28;108202;-69
2022/02/06 07:41:35;;;;;;;0.80;0.70;;;5.70;99.90;5.50;99625.00;;;;4966212;28;117172;-70
2022/02/06 07:44:01;;;;;;;0.60;0.50;;;5.70;99.90;5.60;99620.00;;;;4968263;28;117593;-70
2022/02/06 07:46:37;;;;;;;0.83;0.57;;;5.70;99.90;5.50;99617.00;;;;4968925;28;101510;-70
2022/02/06 07:49:04;;;;;;;1.93;0.70;;;5.70;99.90;5.60;99619.00;;;;4967618;28;87081;-70
2022/02/06 07:51:30;;;;;;;2.23;0.27;;;5.70;99.90;5.60;99596.00;;;;4972466;28;87646;-69
2022/02/06 07:53:56;;;;;;;2.10;0.73;;;5.70;99.90;5.60;99615.00;;;;4971216;28;117133;-69
2022/02/06 07:56:22;;;;;;;0.43;0.40;;;5.80;99.90;5.60;99596.00;;;;4971565;28;111021;-69
2022/02/06 07:58:47;;;;;;;1.40;0.60;;;5.70;99.90;5.70;99584.00;;;;4969153;28;109372;-69
2022/02/06 08:01:13;;;;;;;4.53;0.83;;;5.80;99.90;5.70;99590.00;;;;4969526;28;118060;-70
2022/02/06 08:03:39;;;;;;;0.90;0.60;;;5.90;99.90;5.80;99590.00;;;;4969433;28;88930;-69
2022/02/06 08:06:04;;;;;;;2.17;1.00;;;5.90;99.90;5.80;99587.00;;;;4972093;28;99487;-70
2022/02/06 08:08:30;;;;;;;1.47;1.27;;;5.90;99.90;5.80;99574.00;;;;4985526;28;87654;-70
2022/02/06 08:11:00;;;;;;;1.80;0.73;;;5.90;99.90;5.90;99561.00;;;;4964211;28;88256;-69
2022/02/06 08:13:38;;;;;;;1.33;1.03;;;5.90;99.90;6.00;99581.00;;;;4971483;28;88536;-69
2022/02/06 08:16:06;;;;;;;1.07;0.50;;;6.10;99.90;6.10;99548.00;;;;4982542;28;88115;-69
2022/02/06 08:18:36;;;;;;;0.83;0.50;;;6.30;99.90;6.20;99549.00;;;;4970600;28;93465;-70
2022/02/06 08:21:06;;;;;;;1.03;0.80;;;6.30;99.90;6.40;99561.00;;;;4956001;28;89565;-70
2022/02/06 08:23:33;;;;;;;1.60;0.80;;;6.40;99.90;6.40;99548.00;;;;4969944;28;101435;-71
2022/02/06 08:25:59;;;;;;;2.40;0.80;;;6.50;99.90;6.50;99556.00;;;;4993662;28;87754;-69
2022/02/06 08:28:25;;;;;;;1.47;0.70;;;6.50;99.90;6.60;99546.00;;;;4978622;28;87971;-69
2022/02/06 08:30:51;;;;;;;2.70;0.90;;;6.60;99.90;6.60;99543.00;;;;4977400;28;117238;-69
2022/02/06 08:33:17;;;;;;;0.80;0.40;;;6.70;99.90;6.70;99531.00;;;;4977903;28;92184;-69
2022/02/06 08:35:43;;;;;;;0.40;0.40;;;6.80;99.90;6.70;99520.00;;;;4975403;28;88051;-69
2022/02/06 08:38:10;;;;;;;0.93;0.50;;;6.80;99.90;6.80;99529.00;;;;4975022;28;87088;-70
2022/02/06 08:40:36;;;;;;;1.50;0.70;;;6.80;99.90;6.80;99517.00;;;;4977718;28;88759;-69
2022/02/06 08:43:02;;;;;;;0.93;0.50;;;6.90;99.90;6.90;99513.00;;;;4978122;28;93663;-70
2022/02/06 08:45:29;;;;;;;4.10;0.93;;;7.00;99.90;6.90;99519.00;;;;4992631;28;94773;-70
2022/02/06 08:47:56;;;;;;;0.87;0.43;;;7.00;99.90;7.00;99532.00;;;;4978627;28;87731;-70
2022/02/06 08:50:22;;;;;;;1.73;0.43;;;7.00;99.90;7.00;99509.00;;;;4977013;28;87978;-69
2022/02/06 08:52:48;;;;;;;0.83;0.47;;;7.10;99.90;7.00;99487.00;;;;4978038;28;88018;-70
2022/02/06 08:55:14;;;;;;;0.63;0.43;;;7.10;99.90;7.10;99506.00;;;;4975673;28;109537;-69
2022/02/06 08:57:47;;;;;;;0.57;0.47;;;7.20;99.90;7.10;99547.00;;;;4965529;28;88039;-70
2022/02/06 09:00:23;;;;;;;1.03;0.60;;;7.20;99.90;7.20;99514.00;;;;4976228;28;88236;-69
2022/02/06 09:02:50;;;;;;;2.80;0.90;;;7.20;99.90;7.20;99517.00;;;;4992839;28;92266;-70
2022/02/06 09:05:17;;;;;;;2.27;1.30;;;7.30;99.90;7.20;99509.00;;;;4973062;28;87785;-69
2022/02/06 09:07:45;;;;;;;1.67;0.70;;;7.40;99.90;7.20;99499.00;;;;4978493;28;88083;-71
2022/02/06 09:10:14;;;;;;;0.60;0.60;;;7.30;99.90;7.30;99497.00;;;;4971518;28;90029;-69
2022/02/06 09:12:50;;;;;;;0.50;0.50;;;7.30;99.90;7.30;99493.00;;;;4973791;28;89466;-70
2022/02/06 09:15:17;;;;;;;0.33;0.33;;;7.40;99.90;7.20;99482.00;;;;4975066;28;87781;-70
2022/02/06 09:17:44;;;;;;;0.83;0.30;;;7.40;99.90;7.20;99508.00;;;;4976426;28;87954;-70
2022/02/06 09:20:11;;;;;;;0.87;0.53;;;7.40;99.90;7.20;99473.00;;;;4977959;28;88335;-71
2022/02/06 09:22:40;;;;;;;0.40;0.37;;;7.30;99.90;7.20;99470.00;;;;4990119;27;87877;-71
2022/02/06 09:25:07;;;;;;;0.60;0.47;;;7.30;99.90;7.20;99499.00;;;;4992124;28;87954;-70
2022/02/06 09:27:35;;;;;;;1.23;0.63;;;7.30;99.90;7.20;99492.00;;;;4975514;28;89714;-70
2022/02/06 09:30:15;;;;;;;0.47;0.43;;;7.30;99.90;7.30;99491.00;;;;4973261;28;89169;-70
2022/02/06 09:37:35;;;;;;;0.70;0.40;;;7.40;99.90;7.30;99506.00;;;;4974342;28;87918;-70
2022/02/06 09:40:01;;;;;;;3.43;0.50;;;7.50;99.90;7.40;99453.00;;;;4973389;28;88093;-69
2022/02/06 09:42:29;;;;;;;0.30;0.30;;;7.50;99.90;7.40;99467.00;;;;4973200;28;88068;-69
2022/02/06 09:44:57;;;;;;;1.23;0.50;;;7.50;99.90;7.40;99459.00;;;;4974962;28;87737;-68
2022/02/06 09:47:28;;;;;;;0.30;0.30;;;7.50;99.90;7.40;99444.00;;;;4989843;28;88084;-69
2022/02/06 09:49:54;;;;;;;1.40;0.63;;;7.50;99.90;7.40;99455.00;;;;4965263;28;89186;-70
2022/02/06 09:52:26;;;;;;;0.83;0.53;;;7.60;99.90;7.40;99473.00;;;;4971836;28;116826;-69
2022/02/06 09:55:00;;;;;;;0.93;0.50;;;7.50;99.90;7.30;99456.00;;;;4973021;28;88489;-69
2022/02/06 09:57:29;;;;;;;1.30;0.37;;;7.40;99.90;7.30;99460.00;;;;4971683;28;87955;-69
2022/02/06 09:59:58;;;;;;;0.93;0.60;;;7.40;99.90;7.30;99453.00;;;;4970574;28;90247;-69
2022/02/06 10:02:33;;;;;;;0.93;0.47;;;7.40;99.90;7.40;99440.00;;;;4973947;28;88982;-70
2022/02/06 10:04:59;;;;;;;1.17;0.57;;;7.40;99.90;7.40;99441.00;;;;4970302;28;88310;-69
2022/02/06 10:07:36;;;;;;;0.97;0.77;;;7.50;99.90;7.40;99433.00;;;;4973182;28;108313;-69
2022/02/06 10:10:06;;;;;;;0.67;0.57;;;7.50;99.90;7.50;99430.00;;;;4972696;28;87989;-70
2022/02/06 10:12:38;;;;;;;1.40;0.47;;;7.60;99.90;7.60;99407.00;;;;4986960;27;88388;-69
2022/02/06 10:15:09;;;;;;;2.80;0.50;;;7.60;99.90;7.60;99411.00;;;;4974080;28;87972;-69
2022/02/06 10:17:36;;;;;;;0.30;0.30;;;7.70;99.90;7.60;99420.00;;;;4972791;28;87116;-70
2022/02/06 10:20:11;;;;;;;1.63;0.50;;;7.70;99.90;7.70;99419.00;;;;4987565;28;88052;-69
2022/02/06 10:22:43;;;;;;;2.67;0.60;;;7.80;99.90;7.80;99412.00;;;;4988192;28;87826;-70
2022/02/06 10:25:11;;;;;;;1.07;0.50;;;7.80;99.90;7.90;99398.00;;;;4968304;28;88789;-70
2022/02/06 10:28:32;;;;;;;0.40;0.40;;;7.90;99.90;8.00;99399.00;;;;4988505;28;87795;-71
2022/02/06 10:30:49;;;;;;;0.47;0.47;;;8.00;99.90;8.00;99417.00;;;;4981737;28;88019;-70
2022/02/06 10:33:22;;;;;;;1.07;0.53;;;8.10;99.90;8.00;99391.00;;;;4985657;28;88633;-71
2022/02/06 10:35:54;;;;;;;2.63;0.80;;;8.10;99.90;8.00;99374.00;;;;4971776;28;87801;-71
2022/02/06 10:38:27;;;;;;;1.40;1.00;;;8.10;99.90;8.00;99375.00;;;;4988084;28;87960;-72
2022/02/06 10:41:06;;;;;;;1.90;0.83;;;8.10;99.90;8.10;99374.00;;;;4970514;28;90908;-71
2022/02/06 10:43:34;;;;;;;6.40;1.07;;;8.20;99.90;8.10;99364.00;;;;4984041;28;88316;-70
2022/02/06 10:46:13;;;;;;;2.17;0.60;;;8.10;99.90;8.20;99348.00;;;;4973375;28;87947;-71
2022/02/06 10:48:49;;;;;;;0.93;0.83;;;8.20;99.90;8.30;99354.00;;;;4987543;28;87816;-70
2022/02/06 10:51:39;;;;;;;0.80;0.60;;;8.30;99.90;8.50;99328.00;;;;4973628;28;89284;-70
2022/02/06 10:54:08;;;;;;;2.83;1.20;;;8.50;99.90;8.70;99322.00;;;;4972572;28;88568;-71
2022/02/06 10:56:34;;;;;;;1.17;0.77;;;8.70;99.90;9.10;99326.00;;;;4980381;28;89637;-71
2022/02/06 10:59:08;;;;;;;0.47;0.47;;;9.00;99.90;9.20;99309.00;;;;4966012;28;87981;-70
2022/02/06 11:01:39;;;;;;;1.90;1.13;;;9.20;99.90;9.30;99320.00;;;;4973740;28;87651;-71
2022/02/06 11:04:18;;;;;;;1.20;0.57;;;9.30;99.90;9.20;99308.00;;;;4971563;28;88856;-70
2022/02/06 11:07:05;;;;;;;1.80;1.00;;;9.30;99.60;9.20;99317.00;;;;4973505;28;87909;-72
2022/02/06 11:09:31;;;;;;;3.27;0.60;;;9.20;99.00;9.10;99288.00;;;;4967906;28;87437;-71
2022/02/06 11:11:59;;;;;;;0.87;0.40;;;9.20;99.40;9.10;99291.00;;;;4950352;28;89752;-71
2022/02/06 11:14:27;;;;;;;0.50;0.50;;;9.20;98.60;9.10;99309.00;;;;4971607;28;88989;-70
2022/02/06 11:16:55;;;;;;;0.33;0.33;;;9.20;98.90;9.10;99286.00;;;;4971994;28;88888;-71
2022/02/06 11:19:21;;;;;;;1.93;0.80;;;9.20;99.30;9.10;99284.00;;;;4973037;28;87724;-72
2022/02/06 11:22:10;;;;;;;0.47;0.40;;;9.20;99.10;9.20;99273.00;;;;4972942;28;88164;-70
2022/02/06 11:24:38;;;;;;;0.37;0.37;;;9.20;99.00;9.20;99264.00;;;;4985115;28;87758;-69
2022/02/06 11:27:08;;;;;;;1.87;0.63;;;9.20;98.30;9.20;99266.00;;;;4987942;28;87788;-68
2022/02/06 11:29:35;;;;;;;0.63;0.30;;;9.20;98.10;9.10;99260.00;;;;4966189;28;87997;-69
2022/02/06 11:32:02;;;;;;;1.43;0.63;;;9.20;98.20;9.00;99272.00;;;;4971300;28;89044;-70
2022/02/06 11:34:29;;;;;;;1.00;0.40;;;9.10;99.60;8.90;99221.00;;;;4970275;28;100157;-69
2022/02/06 11:46:37;;;;;;;1.27;0.60;;;8.80;99.90;8.70;99227.00;;;;4984505;28;88843;-70
2022/02/06 11:49:20;;;;;;;0.77;0.60;;;8.80;99.80;8.70;99217.00;;;;4971189;28;87847;-69
2022/02/06 11:51:53;;;;;;;1.70;0.60;;;8.80;99.90;8.70;99239.00;;;;4970490;28;97017;-70
2022/02/06 11:54:46;;;;;;;0.70;0.50;;;8.70;99.90;8.70;99197.00;;;;4979513;28;87890;-70
2022/02/06 12:00:06;;;;;;;0.50;0.50;;;8.80;99.90;8.70;99220.00;;;;4959578;28;87945;-71
2022/02/06 12:02:34;;;;;;;0.70;0.50;;;8.80;99.90;8.80;99214.00;;;;4967544;28;87327;-70
2022/02/06 12:05:29;;;;;;;1.70;0.60;;;8.80;99.90;8.70;99215.00;;;;4972028;28;88958;-70
2022/02/06 12:08:07;;;;;;;0.70;0.50;;;8.80;99.90;8.70;99204.00;;;;4981405;28;88061;-70
2022/02/06 12:10:32;;;;;;;1.13;0.73;;;8.80;99.90;8.80;99209.00;;;;4971840;28;88624;-70
2022/02/06 12:13:16;;;;;;;0.67;0.40;;;8.90;99.90;8.80;99187.00;;;;4962057;28;89170;-70
2022/02/06 12:15:53;;;;;;;0.50;0.50;;;8.90;99.50;8.80;99186.00;;;;4971444;28;89186;-69
2022/02/06 12:18:34;;;;;;;1.30;0.43;;;8.80;99.90;8.80;99179.00;;;;4986592;28;87836;-70
2022/02/06 12:21:21;;;;;;;0.40;0.40;;;8.80;99.90;8.70;99182.00;;;;4987018;28;96636;-70
2022/02/06 12:23:58;;;;;;;0.37;0.30;;;8.80;99.90;8.70;99169.00;;;;4967006;28;87756;-69
2022/02/06 12:26:40;;;;;;;0.77;0.40;;;9.00;99.90;8.70;99141.00;;;;4969425;28;89049;-69
2022/02/06 12:29:18;;;;;;;1.67;0.37;;;8.70;99.90;8.60;99134.00;;;;4967623;28;87804;-70
2022/02/06 12:31:54;;;;;;;1.20;1.10;;;8.70;99.90;8.50;99130.00;;;;4972523;28;88558;-71
2022/02/06 12:37:39;;;;;;;0.70;0.60;;;8.50;99.90;7.90;99116.00;;;;4967448;28;88875;-70
2022/02/06 12:40:17;;;;;;;2.37;1.13;;;8.20;99.90;7.70;99114.00;;;;4971714;28;87710;-69
2022/02/06 12:42:49;;;;;;;0.63;0.60;;;7.90;99.90;7.60;99116.00;;;;4986128;28;87815;-67
2022/02/06 12:45:22;;;;;;;0.70;0.60;;;7.80;99.90;7.40;99099.00;;;;4967894;28;87636;-69
2022/02/06 12:47:55;;;;;;;1.03;0.73;;;7.60;99.90;7.30;99102.00;;;;4970149;28;88055;-71
2022/02/06 12:50:25;;;;;;;1.30;0.90;;;7.50;99.90;7.10;99103.00;;;;4985977;28;88190;-71
2022/02/06 12:52:53;;;;;;;0.90;0.60;;;7.40;99.90;6.90;99084.00;;;;4969494;28;90352;-69
2022/02/06 12:55:22;;;;;;;0.57;0.53;;;7.10;99.90;6.70;99073.00;;;;4970296;28;87064;-74
2022/02/06 12:57:51;;;;;;;0.70;0.70;;;7.00;99.90;6.60;99060.00;;;;4970623;28;87727;-72
2022/02/06 13:00:37;;;;;;;1.17;0.60;;;6.80;99.90;6.50;99072.00;;;;4970714;28;88341;-69
2022/02/06 13:03:44;;;;;;;0.40;0.40;;;6.70;99.90;6.40;99055.00;;;;4964745;28;88930;-72
2022/02/06 13:06:15;;;;;;;1.20;0.93;;;6.20;99.90;6.30;99048.00;;;;4964257;28;88140;-70
2022/02/06 13:08:42;;;;;;;0.90;0.50;;;6.60;99.90;6.30;99048.00;;;;4971608;28;88168;-71
2022/02/06 13:11:18;;;;;;;1.53;0.50;;;6.50;99.90;6.20;99032.00;;;;4973913;28;88558;-69
2022/02/06 13:14:09;;;;;;;0.50;0.50;;;6.40;99.90;6.20;99021.00;;;;4970048;28;87999;-68
2022/02/06 13:17:01;;;;;;;1.30;0.40;;;6.40;99.90;6.20;99018.00;;;;4976542;28;89028;-70
2022/02/06 13:19:50;;;;;;;2.33;0.73;;;6.40;99.90;6.20;99002.00;;;;4970959;28;87912;-71
2022/02/06 13:27:34;;;;;;;0.63;0.63;;;6.30;99.90;6.20;98979.00;;;;4972291;28;88144;-70
2022/02/06 13:30:04;;;;;;;2.03;0.87;;;6.40;99.90;6.20;98973.00;;;;4972883;28;89016;-71
2022/02/06 13:35:17;;;;;;;0.60;0.50;;;6.40;99.90;6.30;98948.00;;;;4966524;28;88020;-72